Vremea acum in Craiova - Romania

Vrei sa afli care e starea vremii acum in Dolj - Romania? Dorim sa iti furnizam starea vremii pentru Dolj - Romania. Starea vremii Dolj - Romania pentru astazi.

Vremea acum in Craiova

Temperatura: 0 °C

Se simte ca: -4.4 °C
Innorat: 100 %
Precipitatii: 71 %
Presiune atmosferica: 1018 hPa
Umiditate: 100%
Vizibilitate: 1 km
Vantul bate din W cu 15.1 km/h

Evolutia vremii in Craiova pe ore

Ora: 19:00
Ploi moderate
Temperatura: 0°C
Sansa de precipitatii: 71%
Ora Descriere Temp Se simte Precipitatii Umiditate Vant
00:00Ploi moderate-2.6°-3.7°54%99%ENE 13.7 KM/H
01:00Ploi moderate-0.5°-2.9°58%99%ENE 13 KM/H
02:00Ploi moderate1.5°-2°87%100%ENE 12.2 KM/H
03:00Burniță uşoară1.7°-1.6°84%100%ENE 11.5 KM/H
04:00Ploi moderate1.9°-1.3°80%100%ENE 11.2 KM/H
05:00Burniță uşoară2.1°-0.9°77%100%ENE 10.4 KM/H
06:00Ceață densă2.1°-0.1°51%100%ENE 8.3 KM/H
07:00Burniță uşoară2.2°0.6°26%100%E 6.1 KM/H
08:00Ceață densă2.2°1.4°0%100%E 4 KM/H
09:00Burniță uşoară1.7°-0.2°25%99%SSE 7.2 KM/H
10:00Ceață densă1.1°-1.8°50%99%SW 10.1 KM/H
11:00Burniță uşoară0.6°-3.4°75%98%WNW 13.3 KM/H
12:00Ploi uşoare0.5°-3.7°74%98%WNW 14.8 KM/H
13:00Burniță uşoară0.5°-4.1°73%98%W 16.6 KM/H
14:00Ploi uşoare0.4°-4.4°72%98%W 18 KM/H
15:00Ploi moderate0.4°-4.5°70%97%W 18.4 KM/H
16:00Ploi uşoare0.3°-4.6°69%96%W 18.4 KM/H
17:00Ploi moderate0.3°-4.7°67%95%W 18.7 KM/H
18:00Ploaie înghețată în cantităţi mari şi moderate0.2°-4.9°69%94%W 19.1 KM/H
19:00Ploi moderate-5.1°71%93%W 19.4 KM/H
20:00Ploaie înghețată în cantităţi mari şi moderate-0.1°-5.3°73%93%W 19.8 KM/H
21:00Lapoviță în cantităţi mici-0.6°-5.7°69%92%W 18.4 KM/H
22:00Ploaie înghețată în cantităţi mari şi moderate-1.1°-6°66%91%W 16.6 KM/H
23:00Lapoviță în cantităţi mici-1.6°-6.4°62%91%W 15.1 KM/H